Time;durP1;ratioP1;P1;durP2;ratioP2;P2;SDS_P1;SDS_P2;PMS_P1;PMS_P2;Temp;Humidity;BMP_temperature;BMP_pressure;BME280_temperature;BME280_humidity;BME280_pressure;Samples;Min_cycle;Max_cycle;Signal;HPM_P1;HPM_P2
2022/06/14 00:03:03;;;;;;;6.70;2.15;;;;;;;9.75;93.88;102391.13;4967710;28;20514;-66
2022/06/14 00:05:29;;;;;;;7.55;2.25;;;;;;;9.75;94.25;102391.13;4968043;28;20109;-66
2022/06/14 00:07:55;;;;;;;4.40;2.10;;;;;;;9.69;95.30;102390.75;4968004;28;20743;-66
2022/06/14 00:10:20;;;;;;;7.80;2.38;;;;;;;9.64;95.81;102394.78;4967924;28;20037;-66
2022/06/14 00:12:46;;;;;;;7.45;2.58;;;;;;;9.60;96.15;102396.28;4968043;28;20492;-66
2022/06/14 00:15:11;;;;;;;4.47;2.58;;;;;;;9.57;95.64;102389.22;4967085;28;20015;-66
2022/06/14 00:17:36;;;;;;;4.82;2.20;;;;;;;9.59;95.85;102386.72;4968578;28;20451;-66
2022/06/14 00:20:03;;;;;;;5.88;1.98;;;;;;;9.55;96.41;102390.81;4971726;28;20034;-66
2022/06/14 00:22:28;;;;;;;6.50;2.30;;;;;;;9.50;96.15;102387.03;4970959;28;20118;-67
2022/06/14 00:24:54;;;;;;;5.63;2.30;;;;;;;9.46;96.28;102387.69;4971512;28;20129;-66
2022/06/14 00:27:20;;;;;;;9.15;2.97;;;;;;;9.42;96.76;102389.19;4971646;28;20018;-66
2022/06/14 00:29:45;;;;;;;6.68;2.22;;;;;;;9.42;97.71;102388.28;4971834;28;20387;-66
2022/06/14 00:32:11;;;;;;;4.78;2.10;;;;;;;9.41;97.50;102391.69;4971099;28;20019;-66
2022/06/14 00:34:36;;;;;;;5.43;2.20;;;;;;;9.40;97.98;102387.28;4971762;28;20026;-66
2022/06/14 00:37:03;;;;;;;6.32;2.60;;;;;;;9.42;96.95;102393.44;4970853;28;20054;-67
2022/06/14 00:39:29;;;;;;;5.43;2.08;;;;;;;9.39;97.78;102388.09;4971299;28;20023;-66
2022/06/14 00:41:55;;;;;;;10.10;2.42;;;;;;;9.37;97.93;102394.06;4971297;28;20090;-66
2022/06/14 00:44:26;;;;;;;4.85;2.50;;;;;;;9.37;97.99;102391.47;4967869;28;20678;-66
2022/06/14 00:47:09;;;;;;;5.43;2.25;;;;;;;9.33;97.93;102383.44;4961775;28;20031;-66
2022/06/14 00:49:47;;;;;;;5.88;2.70;;;;;;;9.25;97.75;102381.25;4970979;28;20194;-66
2022/06/14 00:52:27;;;;;;;5.25;2.53;;;;;;;9.21;98.15;102376.69;4965185;28;20464;-66
2022/06/14 00:55:00;;;;;;;4.78;1.92;;;;;;;9.17;98.17;102381.59;4966689;28;20046;-67
2022/06/14 00:57:32;;;;;;;5.38;2.28;;;;;;;9.10;98.74;102378.59;4969746;28;20457;-66
2022/06/14 01:00:07;;;;;;;6.53;2.80;;;;;;;9.08;99.77;102376.72;4957993;28;20109;-66
2022/06/14 01:02:40;;;;;;;7.07;2.40;;;;;;;9.04;100.00;102370.47;4971258;28;20487;-66
2022/06/14 01:05:10;;;;;;;6.90;2.72;;;;;;;9.01;99.87;102368.56;4970573;28;20057;-66
2022/06/14 01:07:40;;;;;;;6.38;2.55;;;;;;;9.02;99.88;102372.06;4970964;28;20019;-66
2022/06/14 01:10:12;;;;;;;7.40;2.85;;;;;;;8.98;100.00;102367.47;4970417;28;20065;-66
2022/06/14 01:12:44;;;;;;;6.22;2.60;;;;;;;8.98;100.00;102370.97;4970848;28;20042;-66
2022/06/14 01:15:16;;;;;;;5.88;2.58;;;;;;;8.96;100.00;102371.69;4970514;28;20467;-66
2022/06/14 01:17:45;;;;;;;;;;;;;;;8.98;100.00;102370.97;4971116;28;20045;-66
2022/06/14 01:20:14;;;;;;;7.68;2.53;;;;;;;8.97;100.00;102368.28;4970756;28;20004;-66
2022/06/14 01:22:41;;;;;;;5.93;2.35;;;;;;;8.96;99.94;102363.94;4969317;28;20522;-66
2022/06/14 01:25:08;;;;;;;7.13;2.28;;;;;;;8.89;99.72;102366.13;4967831;28;20348;-66
2022/06/14 01:27:36;;;;;;;7.25;2.33;;;;;;;8.85;100.00;102377.03;4970195;28;20394;-66
2022/06/14 01:30:07;;;;;;;4.88;2.20;;;;;;;8.83;100.00;102370.88;4969644;28;20034;-66
2022/06/14 01:32:35;;;;;;;;;;;;;;;8.78;100.00;102374.88;4971331;28;20027;-66
2022/06/14 01:35:06;;;;;;;6.97;2.42;;;;;;;8.75;100.00;102360.06;4970007;28;19914;-67
2022/06/14 01:37:32;;;;;;;7.00;2.67;;;;;;;8.71;100.00;102364.94;4969898;28;20082;-67
2022/06/14 01:39:58;;;;;;;8.77;3.00;;;;;;;8.67;100.00;102373.31;4970119;28;20057;-66
2022/06/14 01:42:36;;;;;;;9.25;2.83;;;;;;;8.60;100.00;102370.31;4970043;28;20153;-66
2022/06/14 01:45:26;;;;;;;6.35;2.78;;;;;;;8.57;100.00;102361.47;4962187;28;20110;-66
2022/06/14 01:48:08;;;;;;;6.87;2.70;;;;;;;8.51;100.00;102355.06;4968780;28;20023;-67
2022/06/14 01:53:57;;;;;;;7.30;2.70;;;;;;;8.47;100.00;102360.81;4970428;28;20074;-66
2022/06/14 01:56:47;;;;;;;9.00;2.78;;;;;;;8.45;100.00;102356.38;4969756;28;20515;-66
2022/06/14 01:59:22;;;;;;;5.95;2.70;;;;;;;8.41;100.00;102356.19;4969231;28;20052;-66
2022/06/14 02:02:10;;;;;;;12.00;2.85;;;;;;;8.38;100.00;102355.94;4970282;28;20034;-66
2022/06/14 02:05:14;;;;;;;7.75;2.72;;;;;;;8.34;100.00;102361.72;4969863;28;20023;-66
2022/06/14 02:08:17;;;;;;;6.38;2.70;;;;;;;8.33;100.00;102354.75;4949391;28;20507;-66
2022/06/14 02:10:51;;;;;;;5.35;2.60;;;;;;;8.30;100.00;102344.22;4966588;28;20039;-66
2022/06/14 02:13:29;;;;;;;9.32;3.15;;;;;;;8.28;100.00;102345.81;4969899;28;20050;-66
2022/06/14 02:16:16;;;;;;;7.82;2.67;;;;;;;8.24;100.00;102343.84;4969133;28;20031;-66
2022/06/14 02:18:50;;;;;;;6.05;2.58;;;;;;;8.22;100.00;102342.84;4969766;28;20042;-66
2022/06/14 02:21:22;;;;;;;7.32;3.40;;;;;;;8.19;100.00;102343.53;4969486;28;20054;-66
2022/06/14 02:23:48;;;;;;;;;;;;;;;8.19;100.00;102340.03;4970237;28;20038;-66
2022/06/14 02:26:26;;;;;;;5.95;2.35;;;;;;;8.22;100.00;102346.31;4969637;28;19925;-66
2022/06/14 02:29:17;;;;;;;6.43;2.95;;;;;;;8.21;100.00;102343.63;4968967;28;20031;-67
2022/06/14 02:32:03;;;;;;;5.67;2.80;;;;;;;8.19;100.00;102334.88;4969198;28;20038;-66
2022/06/14 02:34:42;;;;;;;8.20;2.83;;;;;;;8.09;100.00;102326.53;4969465;28;20277;-66
2022/06/14 02:37:14;;;;;;;7.85;2.80;;;;;;;8.04;100.00;102335.69;4968947;28;20054;-66
2022/06/14 02:39:46;;;;;;;7.93;2.80;;;;;;;7.98;100.00;102333.56;4969136;28;20121;-66
2022/06/14 02:42:17;;;;;;;8.70;3.00;;;;;;;7.95;100.00;102332.47;4969004;28;20026;-66
2022/06/14 02:44:51;;;;;;;3.78;2.13;;;;;;;7.95;100.00;102323.03;4963431;28;20036;-66
2022/06/14 02:47:25;;;;;;;5.22;2.33;;;;;;;7.97;100.00;102323.16;4962932;28;20041;-66
2022/06/14 02:50:13;;;;;;;8.60;2.75;;;;;;;7.92;100.00;102317.66;4968798;28;20061;-67
2022/06/14 02:53:03;;;;;;;6.18;3.05;;;;;;;7.91;100.00;102315.88;4969003;28;20383;-66
2022/06/14 02:55:43;;;;;;;7.00;2.47;;;;;;;7.89;100.00;102315.78;4960660;28;20027;-66
2022/06/14 02:58:19;;;;;;;6.88;2.92;;;;;;;7.85;100.00;102320.63;4967546;28;20027;-66
2022/06/14 03:00:51;;;;;;;5.43;2.63;;;;;;;7.81;100.00;102316.94;4968766;28;20055;-66
2022/06/14 03:03:55;;;;;;;5.95;2.60;;;;;;;7.80;100.00;102325.50;4968553;28;20226;-66
2022/06/14 03:06:25;;;;;;;7.47;2.75;;;;;;;7.76;100.00;102326.06;4968974;28;20042;-66
2022/06/14 03:09:22;;;;;;;6.95;2.17;;;;;;;7.73;100.00;102326.78;4968661;28;20039;-66
2022/06/14 03:11:47;;;;;;;6.45;2.83;;;;;;;7.71;100.00;102330.03;4952357;28;20045;-66
2022/06/14 03:14:18;;;;;;;6.25;2.67;;;;;;;7.68;100.00;102329.00;4966802;28;20034;-66
2022/06/14 03:16:49;;;;;;;7.35;2.75;;;;;;;7.63;100.00;102320.06;4966784;28;20169;-66
2022/06/14 03:19:39;;;;;;;6.80;2.40;;;;;;;7.62;100.00;102326.03;4967132;28;20289;-67
2022/06/14 03:22:15;;;;;;;5.82;2.35;;;;;;;7.61;100.00;102321.66;4965833;28;20043;-66
2022/06/14 03:24:59;;;;;;;4.15;2.30;;;;;;;7.61;100.00;102331.97;4966586;28;20030;-66
2022/06/14 03:27:37;;;;;;;5.60;2.72;;;;;;;7.59;100.00;102333.53;4966768;28;20069;-66
2022/06/14 03:30:19;;;;;;;6.00;3.15;;;;;;;7.54;100.00;102327.19;4966650;28;20050;-66
2022/06/14 03:32:56;;;;;;;5.78;2.85;;;;;;;7.56;100.00;102329.09;4967636;28;20396;-66
2022/06/14 03:35:30;;;;;;;6.40;3.13;;;;;;;7.57;100.00;102324.84;4955037;28;20038;-66
2022/06/14 03:38:02;;;;;;;6.95;2.97;;;;;;;7.55;100.00;102331.56;4968185;28;20386;-66
2022/06/14 03:40:27;;;;;;;7.35;3.42;;;;;;;7.56;100.00;102333.34;4968540;28;20468;-66
2022/06/14 03:42:53;;;;;;;6.05;3.72;;;;;;;7.53;100.00;102327.97;4968376;28;20032;-66
2022/06/14 03:45:27;;;;;;;8.38;3.40;;;;;;;7.54;100.00;102328.09;4968376;28;20022;-66
2022/06/14 03:47:53;;;;;;;10.13;3.97;;;;;;;7.54;100.00;102329.75;4968055;28;20050;-66
2022/06/14 03:50:43;;;;;;;10.43;3.60;;;;;;;7.50;100.00;102326.06;4967801;28;20031;-66
2022/06/14 03:53:16;;;;;;;8.23;3.45;;;;;;;7.46;100.00;102324.09;4966937;28;20039;-66
2022/06/14 03:56:02;;;;;;;4.85;2.42;;;;;;;7.44;100.00;102320.50;4968024;28;20031;-66
2022/06/14 03:58:40;;;;;;;7.10;3.22;;;;;;;7.43;100.00;102329.91;4967956;28;20415;-66
2022/06/14 04:01:18;;;;;;;7.78;3.08;;;;;;;7.50;100.00;102330.34;4967873;28;20365;-66
2022/06/14 04:04:06;;;;;;;4.97;2.70;;;;;;;7.50;100.00;102320.91;4967489;28;20533;-66
2022/06/14 04:06:47;;;;;;;7.85;3.15;;;;;;;7.52;100.00;102333.94;4967642;28;20226;-66
2022/06/14 04:09:37;;;;;;;8.88;3.42;;;;;;;7.53;100.00;102330.56;4956702;28;20058;-65
2022/06/14 04:12:17;;;;;;;7.00;3.00;;;;;;;7.53;100.00;102334.03;4963042;28;20163;-66
2022/06/14 04:15:13;;;;;;;5.60;2.75;;;;;;;7.56;100.00;102341.09;4966818;28;20031;-66
2022/06/14 04:21:02;;;;;;;6.30;2.60;;;;;;;7.59;100.00;102340.41;4958940;28;20096;-66
2022/06/14 04:23:36;;;;;;;6.43;2.78;;;;;;;7.63;100.00;102340.72;4967158;28;20027;-66
2022/06/14 04:26:07;;;;;;;6.00;3.00;;;;;;;7.67;100.00;102342.72;4967360;28;20446;-66
2022/06/14 04:28:48;;;;;;;4.60;3.40;;;;;;;7.73;100.00;102343.94;4967926;28;20031;-65
2022/06/14 04:31:28;;;;;;;5.20;2.80;;;;;;;7.78;100.00;102340.88;4967742;28;20038;-66
2022/06/14 04:34:03;;;;;;;4.03;2.92;;;;;;;7.81;100.00;102345.31;4954306;28;20015;-66
2022/06/14 04:36:45;;;;;;;8.00;2.90;;;;;;;7.87;100.00;102348.34;4967397;28;20027;-66
2022/06/14 04:39:41;;;;;;;5.80;2.75;;;;;;;7.92;100.00;102346.06;4955215;28;20031;-66
2022/06/14 04:42:23;;;;;;;6.30;2.83;;;;;;;8.01;100.00;102343.19;4965260;28;20035;-66
2022/06/14 04:45:07;;;;;;;6.82;3.35;;;;;;;8.09;100.00;102342.03;4960459;28;20139;-66
2022/06/14 04:47:58;;;;;;;4.80;3.15;;;;;;;8.19;100.00;102347.78;4963415;28;20042;-66
2022/06/14 04:50:32;;;;;;;5.60;2.95;;;;;;;8.26;100.00;102342.22;4967217;28;20088;-66
2022/06/14 04:53:22;;;;;;;5.47;3.47;;;;;;;8.36;100.00;102339.47;4967355;28;20109;-66
2022/06/14 04:55:55;;;;;;;7.53;3.83;;;;;;;8.46;100.00;102342.63;4967261;28;20089;-68
2022/06/14 04:58:30;;;;;;;9.13;4.38;;;;;;;8.54;100.00;102341.47;4967485;28;20023;-66
2022/06/14 05:01:00;;;;;;;6.80;4.07;;;;;;;8.64;100.00;102342.97;4967117;28;20031;-66
2022/06/14 05:03:35;;;;;;;8.32;3.95;;;;;;;8.75;100.00;102335.91;4963332;28;20062;-66
2022/06/14 05:06:30;;;;;;;6.68;4.03;;;;;;;8.92;100.00;102343.84;4956397;28;20027;-66
2022/06/14 05:09:02;;;;;;;13.75;5.03;;;;;;;9.05;100.00;102343.78;4956057;28;20358;-66
2022/06/14 05:11:33;;;;;;;11.52;5.32;;;;;;;9.19;100.00;102348.94;4961099;28;20027;-66
2022/06/14 05:14:07;;;;;;;8.95;5.38;;;;;;;9.32;100.00;102348.91;4957423;28;20135;-66
2022/06/14 05:16:43;;;;;;;15.80;6.07;;;;;;;9.45;100.00;102341.88;4959041;28;20034;-66
2022/06/14 05:19:39;;;;;;;12.20;6.10;;;;;;;9.58;100.00;102346.13;4966618;28;20574;-66
2022/06/14 05:22:12;;;;;;;11.02;6.25;;;;;;;9.74;100.00;102350.50;4958267;28;20119;-66
2022/06/14 05:24:38;;;;;;;15.88;7.07;;;;;;;9.87;100.00;102344.38;4958399;28;20027;-66
2022/06/14 05:27:12;;;;;;;10.07;6.28;;;;;;;10.02;100.00;102351.25;4963644;28;20023;-66
2022/06/14 05:29:54;;;;;;;13.05;6.28;;;;;;;10.14;100.00;102356.25;4968683;28;20525;-66
2022/06/14 05:32:26;;;;;;;12.90;7.25;;;;;;;10.28;100.00;102350.19;4969816;28;20396;-66
2022/06/14 05:35:42;;;;;;;9.63;5.55;;;;;;;10.43;100.00;102346.69;4963655;28;20030;-66
2022/06/14 05:38:32;;;;;;;11.63;5.88;;;;;;;10.63;100.00;102352.13;4935770;28;20396;-66
2022/06/14 05:41:04;;;;;;;14.80;7.15;;;;;;;10.77;100.00;102346.00;4962938;28;20035;-66
2022/06/14 05:43:29;;;;;;;9.82;5.70;;;;;;;10.92;100.00;102350.22;4961103;28;20123;-66
2022/06/14 05:46:10;;;;;;;11.77;6.05;;;;;;;11.07;100.00;102347.59;4964031;28;20133;-66
2022/06/14 05:48:41;;;;;;;;;;;;;;;11.21;100.00;102350.03;4970351;28;20117;-66
2022/06/14 05:51:10;;;;;;;11.25;5.40;;;;;;;11.35;99.08;102348.19;4966604;28;20330;-66
2022/06/14 05:53:58;;;;;;;12.45;6.40;;;;;;;11.47;98.89;102351.44;4964125;28;20033;-66
2022/06/14 05:56:51;;;;;;;12.55;6.35;;;;;;;11.62;97.65;102350.44;4960825;28;20342;-66
2022/06/14 05:59:54;;;;;;;12.02;6.70;;;;;;;11.80;98.93;102349.59;4961047;28;20412;-66
2022/06/14 06:02:28;;;;;;;12.18;6.18;;;;;;;11.94;96.95;102359.00;4957205;28;20536;-66
2022/06/14 06:05:05;;;;;;;10.13;6.03;;;;;;;12.06;94.54;102357.81;4953780;28;20028;-67
2022/06/14 06:07:34;;;;;;;11.25;6.05;;;;;;;12.19;95.71;102355.06;4963749;28;20058;-66
2022/06/14 06:10:07;;;;;;;11.98;6.43;;;;;;;12.36;95.92;102355.88;4960783;28;20370;-66
2022/06/14 06:12:42;;;;;;;9.65;5.80;;;;;;;12.53;94.68;102357.50;4960317;28;20114;-66
2022/06/14 06:15:21;;;;;;;10.02;5.18;;;;;;;12.67;93.45;102364.28;4962563;28;20026;-66
2022/06/14 06:17:52;;;;;;;11.02;5.63;;;;;;;12.80;91.10;102357.94;4960766;28;20030;-66
2022/06/14 06:20:20;;;;;;;10.00;6.22;;;;;;;12.92;90.46;102364.53;4959315;28;20030;-66
2022/06/14 06:22:57;;;;;;;9.02;5.15;;;;;;;13.09;90.66;102367.94;4958810;28;20321;-66
2022/06/14 06:25:33;;;;;;;10.93;5.15;;;;;;;13.25;88.85;102369.53;4955930;28;20027;-67
2022/06/14 06:28:23;;;;;;;12.63;5.50;;;;;;;13.40;88.60;102379.72;4959404;28;20028;-66
2022/06/14 06:31:09;;;;;;;7.85;4.88;;;;;;;13.60;89.23;102361.50;4958688;28;20030;-66
2022/06/14 06:33:38;;;;;;;8.90;4.65;;;;;;;13.78;87.88;102366.63;4958825;28;20121;-66
2022/06/14 06:36:12;;;;;;;10.02;4.95;;;;;;;13.96;85.95;102362.16;4961238;28;20030;-67
2022/06/14 06:38:56;;;;;;;8.80;4.50;;;;;;;14.09;82.73;102364.44;4961140;28;20038;-66
2022/06/14 06:44:28;;;;;;;9.38;3.95;;;;;;;14.40;80.72;102362.22;4959042;28;20127;-66
2022/06/14 06:47:06;;;;;;;10.02;4.10;;;;;;;14.57;80.03;102365.47;4961777;28;20467;-66
2022/06/14 06:49:46;;;;;;;7.55;4.07;;;;;;;14.69;76.49;102366.81;4970852;28;20033;-66
2022/06/14 06:52:14;;;;;;;7.80;4.00;;;;;;;14.78;76.22;102359.34;4962930;28;20054;-66
2022/06/14 06:54:55;;;;;;;8.23;3.78;;;;;;;14.93;76.93;102366.03;4968845;28;20027;-65
2022/06/14 06:57:24;;;;;;;11.30;5.20;;;;;;;14.99;73.45;102361.91;4954019;28;20035;-66
2022/06/14 06:59:52;;;;;;;9.75;4.70;;;;;;;15.12;75.05;102363.28;4954712;28;20143;-66
2022/06/14 07:02:31;;;;;;;7.43;3.85;;;;;;;15.24;74.75;102361.94;4952068;28;20035;-63
2022/06/14 07:05:04;;;;;;;7.50;3.70;;;;;;;15.41;75.53;102362.56;4957291;28;20027;-64
2022/06/14 07:07:51;;;;;;;6.55;2.95;;;;;;;15.61;73.17;102363.25;4959401;28;20033;-67
2022/06/14 07:10:19;;;;;;;7.40;3.25;;;;;;;15.78;69.84;102360.34;4963960;28;20030;-66
2022/06/14 07:12:52;;;;;;;5.43;2.60;;;;;;;15.79;64.75;102361.25;4961969;28;20102;-66
2022/06/14 07:15:20;;;;;;;5.63;2.72;;;;;;;15.86;65.62;102365.84;4966571;28;20022;-67
2022/06/14 07:18:15;;;;;;;6.35;2.88;;;;;;;15.94;64.21;102364.38;4962702;28;20440;-66
2022/06/14 07:20:59;;;;;;;3.97;1.73;;;;;;;15.99;61.49;102367.16;4953165;28;20566;-66
2022/06/14 07:23:51;;;;;;;3.60;1.40;;;;;;;16.17;61.67;102366.03;4954062;28;20042;-67
2022/06/14 07:26:16;;;;;;;;;;;;;;;16.31;57.89;102370.00;4961155;28;20063;-66
2022/06/14 07:29:03;;;;;;;3.78;1.40;;;;;;;16.50;57.48;102362.72;4963169;28;19949;-66
2022/06/14 07:31:49;;;;;;;5.28;1.77;;;;;;;16.64;57.22;102362.28;4961409;28;20034;-67
2022/06/14 07:34:16;;;;;;;4.95;1.63;;;;;;;16.79;57.84;102361.84;4962659;28;20027;-67
2022/06/14 07:37:05;;;;;;;5.15;1.70;;;;;;;16.93;57.13;102359.63;4961335;28;20042;-67
2022/06/14 07:39:39;;;;;;;3.55;1.15;;;;;;;16.98;56.05;102360.66;4958195;28;20102;-66
2022/06/14 07:42:23;;;;;;;4.93;1.55;;;;;;;17.14;58.13;102363.78;4964349;28;20031;-67
2022/06/14 07:45:04;;;;;;;5.45;1.92;;;;;;;17.34;57.02;102360.84;4964892;28;20113;-67
2022/06/14 07:47:47;;;;;;;5.65;2.50;;;;;;;17.37;55.38;102355.69;4968274;28;20034;-67
2022/06/14 07:50:33;;;;;;;3.97;1.95;;;;;;;17.45;54.91;102364.63;4959103;28;20442;-67
2022/06/14 07:53:15;;;;;;;6.20;2.03;;;;;;;17.58;57.33;102354.47;4964994;28;20030;-67
2022/06/14 07:56:11;;;;;;;7.55;2.00;;;;;;;17.68;55.59;102350.38;4959016;28;20042;-67
2022/06/14 07:58:46;;;;;;;8.02;2.13;;;;;;;17.76;54.84;102362.84;4961182;28;20047;-67
2022/06/14 08:01:40;;;;;;;3.38;1.38;;;;;;;17.98;53.84;102355.53;4951929;28;20117;-67
2022/06/14 08:04:20;;;;;;;5.57;1.83;;;;;;;18.19;54.68;102353.41;4960045;28;20042;-67
2022/06/14 08:06:53;;;;;;;3.80;1.53;;;;;;;18.38;53.39;102360.00;4961513;28;20094;-68
2022/06/14 08:09:42;;;;;;;4.50;1.98;;;;;;;18.56;52.04;102353.41;4961833;28;20277;-67
2022/06/14 08:12:21;;;;;;;7.03;2.00;;;;;;;18.63;49.88;102350.06;4965627;28;20418;-67
2022/06/14 08:14:50;;;;;;;4.65;2.13;;;;;;;18.74;50.61;102346.78;4965508;28;20049;-67
2022/06/14 08:17:25;;;;;;;3.95;2.30;;;;;;;18.79;50.88;102339.91;4961608;28;20832;-68
2022/06/14 08:20:26;;;;;;;4.95;1.80;;;;;;;18.98;52.05;102335.91;4957438;28;20039;-67
2022/06/14 08:22:55;;;;;;;4.03;1.83;;;;;;;19.19;51.55;102338.09;4957683;28;20396;-67
2022/06/14 08:25:26;;;;;;;7.47;2.40;;;;;;;19.34;52.07;102341.91;4955607;28;20027;-67
2022/06/14 08:27:59;;;;;;;5.65;1.63;;;;;;;19.43;50.13;102335.94;4964727;28;20361;-67
2022/06/14 08:30:34;;;;;;;4.07;1.75;;;;;;;19.62;52.61;102334.53;4964079;28;20042;-67
2022/06/14 08:33:15;;;;;;;4.55;2.10;;;;;;;19.75;51.76;102330.34;4963583;28;20062;-67
2022/06/14 08:35:46;;;;;;;7.82;2.72;;;;;;;19.82;49.84;102339.25;4965496;28;20364;-67
2022/06/14 08:38:14;;;;;;;;;;;;;;;19.63;47.87;102331.03;4963520;28;20585;-67
2022/06/14 08:41:06;;;;;;;4.47;2.17;;;;;;;19.59;48.34;102329.19;4967292;28;19914;-67
2022/06/14 08:43:42;;;;;;;5.97;2.25;;;;;;;19.68;50.45;102328.47;4962547;28;20032;-66
2022/06/14 08:46:20;;;;;;;6.43;2.00;;;;;;;19.72;49.63;102330.31;4969514;28;20530;-66
2022/06/14 08:49:22;;;;;;;6.10;1.85;;;;;;;19.73;48.57;102325.94;4971864;28;20487;-66
2022/06/14 08:52:04;;;;;;;7.32;1.70;;;;;;;19.98;51.27;102327.25;4968560;28;20019;-67
2022/06/14 08:55:00;;;;;;;4.05;1.63;;;;;;;19.97;46.96;102329.84;4970812;28;20031;-67
2022/06/14 08:58:21;;;;;;;6.68;2.33;;;;;;;19.75;46.61;102329.50;4962476;28;20366;-67
2022/06/14 09:00:58;;;;;;;4.68;1.92;;;;;;;19.79;48.13;102332.19;4949727;29;20043;-67
2022/06/14 09:03:59;;;;;;;5.53;1.73;;;;;;;19.82;47.67;102323.47;4963582;28;20022;-68
2022/06/14 09:06:35;;;;;;;;;;;;;;;20.01;49.73;102331.66;4964368;28;20914;-67
2022/06/14 09:09:19;;;;;;;5.03;1.77;;;;;;;20.30;51.41;102328.63;4966683;28;19911;-67
2022/06/14 09:12:03;;;;;;;4.03;1.60;;;;;;;20.53;50.75;102328.06;4961068;28;20314;-67
2022/06/14 09:15:06;;;;;;;6.50;2.20;;;;;;;20.62;49.79;102330.84;4956632;28;20468;-67
2022/06/14 09:17:40;;;;;;;5.57;2.45;;;;;;;20.73;48.15;102327.44;4961892;28;20046;-67
2022/06/14 09:20:17;;;;;;;5.18;2.20;;;;;;;20.86;48.56;102324.13;4961923;28;20082;-67
2022/06/14 09:23:23;;;;;;;4.93;1.98;;;;;;;20.86;47.11;102321.50;4964221;28;20051;-68
2022/06/14 09:26:26;;;;;;;5.25;2.15;;;;;;;20.76;44.52;102325.75;4960594;28;20035;-68
2022/06/14 09:29:21;;;;;;;6.85;2.17;;;;;;;20.68;45.04;102318.63;4965020;28;20033;-68
2022/06/14 09:32:08;;;;;;;4.72;1.98;;;;;;;20.55;49.93;102323.72;4960546;28;20062;-68
2022/06/14 09:34:33;;;;;;;5.88;2.20;;;;;;;20.69;47.85;102323.91;4957175;28;20484;-67
2022/06/14 09:37:15;;;;;;;4.50;1.90;;;;;;;20.84;47.65;102319.69;4967578;28;20039;-68
2022/06/14 09:39:59;;;;;;;5.38;1.83;;;;;;;21.05;46.53;102318.19;4969050;28;20042;-68
2022/06/14 09:43:01;;;;;;;4.95;1.52;;;;;;;21.24;46.49;102314.03;4969297;28;20553;-68
2022/06/14 09:45:37;;;;;;;5.13;1.90;;;;;;;21.46;50.02;102315.13;4969122;28;20286;-68
2022/06/14 09:48:26;;;;;;;6.40;2.00;;;;;;;21.64;48.65;102302.13;4969737;28;20054;-68
2022/06/14 09:50:52;;;;;;;5.30;2.00;;;;;;;21.73;45.69;102299.53;4964363;28;20090;-67
2022/06/14 09:53:23;;;;;;;5.00;1.80;;;;;;;21.86;47.18;102297.06;4958229;28;20452;-68
2022/06/14 09:56:30;;;;;;;5.55;2.28;;;;;;;21.58;47.77;102298.56;4958252;28;20031;-68
2022/06/14 09:59:19;;;;;;;7.63;2.28;;;;;;;21.59;44.50;102287.13;4956050;28;20050;-68
2022/06/14 10:01:50;;;;;;;4.45;1.88;;;;;;;21.67;47.84;102296.84;4963244;28;20055;-67
2022/06/14 10:04:24;;;;;;;4.82;2.15;;;;;;;21.88;48.95;102284.72;4969206;28;20062;-68
2022/06/14 10:07:05;;;;;;;5.78;2.15;;;;;;;21.97;46.88;102284.81;4968666;28;20031;-68
2022/06/14 10:09:55;;;;;;;5.57;1.60;;;;;;;22.04;46.99;102278.69;4968563;28;20089;-68
2022/06/14 10:12:44;;;;;;;5.60;2.05;;;;;;;21.95;43.15;102286.53;4964524;28;20976;-68
2022/06/14 10:16:02;;;;;;;3.35;1.65;;;;;;;21.71;45.42;102280.19;4959202;28;20162;-68
2022/06/14 10:19:03;;;;;;;4.93;1.95;;;;;;;21.69;44.66;102279.28;4942079;28;20081;-67
2022/06/14 10:21:39;;;;;;;4.68;2.03;;;;;;;21.73;45.14;102278.44;4956596;28;20047;-68
2022/06/14 10:24:18;;;;;;;5.60;2.10;;;;;;;21.75;46.77;102273.19;4953682;28;20070;-68
2022/06/14 10:30:15;;;;;;;3.95;1.70;;;;;;;21.88;48.77;102271.53;4958674;28;20042;-68
2022/06/14 10:32:49;;;;;;;5.82;1.98;;;;;;;21.93;45.27;102264.53;4962639;28;20034;-68
2022/06/14 10:35:32;;;;;;;5.10;2.13;;;;;;;21.91;44.80;102259.25;4962000;28;20380;-68
2022/06/14 10:38:33;;;;;;;5.95;2.47;;;;;;;21.74;44.11;102252.94;4962354;28;20069;-68
2022/06/14 10:41:14;;;;;;;4.70;1.70;;;;;;;21.67;45.76;102249.38;4961043;28;20031;-68
2022/06/14 10:43:52;;;;;;;6.55;2.05;;;;;;;21.71;45.18;102248.53;4956156;28;20035;-68
2022/06/14 10:46:26;;;;;;;8.02;2.20;;;;;;;21.65;43.79;102251.13;4960215;28;20114;-69
2022/06/14 10:49:34;;;;;;;5.32;2.78;;;;;;;21.57;45.64;102244.03;4958496;28;20248;-69
2022/06/14 10:52:44;;;;;;;3.65;1.70;;;;;;;21.62;45.68;102237.91;4951552;28;20042;-69
2022/06/14 10:55:31;;;;;;;5.88;2.20;;;;;;;21.85;45.64;102240.75;4909634;29;20047;-69
2022/06/14 10:58:31;;;;;;;6.22;2.00;;;;;;;21.90;48.15;102230.22;4939721;28;20130;-69
2022/06/14 11:01:23;;;;;;;3.58;2.20;;;;;;;21.85;44.92;102243.41;4953656;28;20046;-69
2022/06/14 11:04:27;;;;;;;5.35;2.08;;;;;;;21.85;44.94;102224.03;4951639;28;20122;-68
2022/06/14 11:07:31;;;;;;;5.82;1.88;;;;;;;21.97;48.40;102223.22;4935768;28;20038;-69
2022/06/14 11:10:09;;;;;;;4.65;2.50;;;;;;;21.87;43.02;102215.28;4949131;28;20134;-68
2022/06/14 11:12:56;;;;;;;5.25;2.17;;;;;;;21.75;45.31;102212.53;4954450;28;20058;-69
2022/06/14 11:15:44;;;;;;;5.03;1.92;;;;;;;21.74;45.15;102219.53;4960540;28;20035;-68
2022/06/14 11:18:31;;;;;;;8.52;2.30;;;;;;;21.94;44.05;102225.00;4953193;28;20137;-69
2022/06/14 11:21:18;;;;;;;10.20;2.53;;;;;;;21.90;43.03;102219.66;4951404;28;20042;-68
2022/06/14 11:24:25;;;;;;;5.22;2.05;;;;;;;21.96;44.95;102214.44;4951485;28;20035;-69
2022/06/14 11:27:03;;;;;;;4.68;2.38;;;;;;;22.04;43.26;102207.44;4951907;28;20096;-69
2022/06/14 11:29:47;;;;;;;5.13;2.15;;;;;;;22.15;44.94;102212.78;4947441;28;20461;-69
2022/06/14 11:32:19;;;;;;;5.50;2.42;;;;;;;22.43;47.39;102214.69;4952478;28;20035;-70
2022/06/14 11:35:04;;;;;;;6.72;2.60;;;;;;;22.12;41.48;102204.84;4954656;28;20412;-69
2022/06/14 11:37:42;;;;;;;4.88;1.85;;;;;;;22.26;44.00;102206.66;4953382;28;20869;-69
2022/06/14 11:40:23;;;;;;;4.47;2.20;;;;;;;22.24;43.54;102204.03;4954237;28;20063;-69
2022/06/14 11:42:54;;;;;;;5.00;2.63;;;;;;;22.14;42.85;102194.31;4950276;28;20387;-68
2022/06/14 11:45:28;;;;;;;3.47;2.33;;;;;;;22.07;43.36;102191.63;4950482;28;20186;-69
2022/06/14 11:48:25;;;;;;;7.47;2.60;;;;;;;22.07;42.85;102196.91;4951844;28;20039;-70
2022/06/14 11:51:30;;;;;;;5.97;2.47;;;;;;;22.03;46.55;102176.66;4951225;28;20070;-70
2022/06/14 11:54:23;;;;;;;5.55;2.58;;;;;;;22.15;47.52;102177.59;4953124;28;20732;-69
2022/06/14 11:56:53;;;;;;;7.53;3.00;;;;;;;22.26;43.68;102189.09;4969226;28;20027;-69
2022/06/14 11:59:36;;;;;;;7.80;2.85;;;;;;;22.22;44.03;102178.53;4957343;28;20035;-68
2022/06/14 12:02:31;;;;;;;6.40;2.58;;;;;;;22.38;45.26;102180.31;4958776;28;20018;-69
2022/06/14 12:05:07;;;;;;;4.93;2.63;;;;;;;22.51;43.05;102175.97;4959064;28;20037;-69
2022/06/14 12:07:48;;;;;;;5.43;2.97;;;;;;;22.64;44.31;102170.75;4955090;28;20015;-69
2022/06/14 12:10:29;;;;;;;5.63;2.97;;;;;;;22.65;41.97;102172.50;4956914;28;20031;-69
2022/06/14 12:13:19;;;;;;;6.03;2.92;;;;;;;22.61;42.38;102176.00;4967921;28;20038;-69
2022/06/14 12:16:19;;;;;;;7.88;2.45;;;;;;;22.54;43.33;102167.19;4965849;28;20049;-69
2022/06/14 12:18:59;;;;;;;4.85;2.75;;;;;;;22.63;44.21;102175.13;4947013;28;20708;-70
2022/06/14 12:21:33;;;;;;;4.75;2.75;;;;;;;22.58;40.76;102162.78;4954586;28;20058;-69
2022/06/14 12:24:05;;;;;;;5.07;2.72;;;;;;;22.49;42.21;102169.78;4967849;28;20042;-69
2022/06/14 12:26:37;;;;;;;6.25;3.08;;;;;;;22.38;41.67;102169.75;4965361;28;20226;-69
2022/06/14 12:29:21;;;;;;;5.90;2.53;;;;;;;22.46;44.23;102163.63;4967878;28;20630;-69
2022/06/14 12:31:50;;;;;;;4.65;2.38;;;;;;;22.72;44.80;102158.44;4965346;28;20033;-69
2022/06/14 12:34:15;;;;;;;5.55;2.90;;;;;;;22.74;41.53;102153.16;4957110;28;20026;-68
2022/06/14 12:37:03;;;;;;;6.28;2.67;;;;;;;22.76;42.54;102157.56;4952529;28;20384;-69
2022/06/14 12:39:42;;;;;;;6.32;2.78;;;;;;;22.81;41.57;102154.06;4962838;28;20583;-69